createdAt,value
2018-12-15T00:00:37.116Z,102191.14
2018-12-15T00:03:05.545Z,102184.75
2018-12-15T00:05:40.537Z,102196.30
2018-12-15T00:08:08.898Z,102195.32
2018-12-15T00:10:37.230Z,102199.95
2018-12-15T00:13:05.619Z,102201.11
2018-12-15T00:15:34.583Z,102202.78
2018-12-15T00:18:03.107Z,102205.73
2018-12-15T00:20:31.424Z,102196.75
2018-12-15T00:22:59.755Z,102199.32
2018-12-15T00:25:28.119Z,102193.91
2018-12-15T00:27:56.624Z,102195.20
2018-12-15T00:30:24.935Z,102197.50
2018-12-15T00:32:53.257Z,102193.65
2018-12-15T00:35:21.572Z,102204.31
2018-12-15T00:37:49.910Z,102203.63
2018-12-15T00:40:18.288Z,102206.31
2018-12-15T00:42:46.612Z,102201.92
2018-12-15T00:45:14.940Z,102205.90
2018-12-15T00:47:43.252Z,102204.73
2018-12-15T00:50:11.580Z,102207.94
2018-12-15T00:52:39.936Z,102213.66
2018-12-15T00:55:08.240Z,102211.52
2018-12-15T00:57:36.552Z,102218.72
2018-12-15T01:00:05.200Z,102210.23
2018-12-15T01:02:33.523Z,102215.76
2018-12-15T01:05:01.855Z,102208.32
2018-12-15T01:07:30.171Z,102217.31
2018-12-15T01:09:58.504Z,102212.05
2018-12-15T01:12:26.820Z,102223.88
2018-12-15T01:14:55.141Z,102221.58
2018-12-15T01:17:23.556Z,102212.86
2018-12-15T01:19:51.922Z,102211.19
2018-12-15T01:22:20.228Z,102216.83
2018-12-15T01:24:48.628Z,102217.09
2018-12-15T01:27:16.927Z,102218.77
2018-12-15T01:29:45.335Z,102216.70
2018-12-15T01:32:13.671Z,102224.53
2018-12-15T01:34:42.235Z,102216.47
2018-12-15T01:37:10.571Z,102224.05
2018-12-15T01:39:38.912Z,102226.92
2018-12-15T01:42:07.203Z,102229.09
2018-12-15T01:44:35.531Z,102227.57
2018-12-15T01:47:03.874Z,102223.20
2018-12-15T01:49:32.209Z,102227.57
2018-12-15T01:52:00.584Z,102216.02
2018-12-15T01:54:28.985Z,102231.81
2018-12-15T01:56:57.302Z,102221.80
2018-12-15T01:59:25.642Z,102217.70
2018-12-15T02:01:54.039Z,102222.21
2018-12-15T02:04:22.376Z,102211.44
2018-12-15T02:06:50.698Z,102221.70
2018-12-15T02:09:19.038Z,102216.03
2018-12-15T02:11:47.363Z,102216.67
2018-12-15T02:14:15.712Z,102209.86
2018-12-15T02:16:44.019Z,102211.53
2018-12-15T02:19:12.335Z,102213.59
2018-12-15T02:21:40.655Z,102217.44
2018-12-15T02:24:09.007Z,102213.59
2018-12-15T02:26:37.379Z,102213.98
2018-12-15T02:29:05.680Z,102216.16
2018-12-15T02:31:34.029Z,102205.50
2018-12-15T02:34:02.343Z,102214.61
2018-12-15T02:36:30.658Z,102212.55
2018-12-15T02:38:58.984Z,102214.85
2018-12-15T02:41:27.330Z,102215.36
2018-12-15T02:43:55.797Z,102212.91
2018-12-15T02:46:24.118Z,102211.62
2018-12-15T02:48:52.455Z,102207.77
2018-12-15T02:51:20.772Z,102208.64
2018-12-15T02:53:49.085Z,102207.86
2018-12-15T02:56:17.389Z,102204.91
2018-12-15T02:58:45.683Z,102207.59
2018-12-15T03:01:14.007Z,102208.23
2018-12-15T03:03:42.324Z,102212.47
2018-12-15T03:06:10.627Z,102209.13
2018-12-15T03:08:38.947Z,102213.88
2018-12-15T03:11:07.261Z,102216.56
2018-12-15T03:13:35.554Z,102214.26
2018-12-15T03:16:03.908Z,102212.47
2018-12-15T03:18:32.201Z,102211.19
2018-12-15T03:21:01.424Z,102230.84
2018-12-15T03:23:29.782Z,102222.11
2018-12-15T03:25:58.174Z,102224.30
2018-12-15T03:28:26.573Z,102226.73
2018-12-15T03:30:54.905Z,102226.35
2018-12-15T03:33:23.333Z,102225.58
2018-12-15T03:35:51.666Z,102228.14
2018-12-15T03:38:19.978Z,102228.66
2018-12-15T03:40:48.374Z,102228.77
2018-12-15T03:43:16.683Z,102219.91
2018-12-15T03:45:45.272Z,102226.33
2018-12-15T03:48:13.574Z,102220.80
2018-12-15T03:50:41.888Z,102224.00
2018-12-15T03:53:10.189Z,102229.38
2018-12-15T03:55:38.485Z,102228.61
2018-12-15T03:58:06.804Z,102227.02
2018-12-15T04:00:35.166Z,102227.64
2018-12-15T04:03:03.488Z,102225.32
2018-12-15T04:05:31.794Z,102222.87
2018-12-15T04:08:00.108Z,102221.70
2018-12-15T04:10:28.508Z,102220.42
2018-12-15T04:12:56.927Z,102221.55
2018-12-15T04:15:25.226Z,102224.72
2018-12-15T04:17:53.545Z,102219.58
2018-12-15T04:20:21.838Z,102228.96
2018-12-15T04:22:50.167Z,102220.16
2018-12-15T04:25:18.494Z,102227.73
2018-12-15T04:27:46.813Z,102222.09
2018-12-15T04:30:15.117Z,102215.28
2018-12-15T04:32:45.334Z,102212.20
2018-12-15T04:35:13.744Z,102218.87
2018-12-15T04:37:42.059Z,102211.16
2018-12-15T04:40:10.778Z,102214.12
2018-12-15T04:42:39.130Z,102209.99
2018-12-15T04:45:07.488Z,102219.97
2018-12-15T04:47:35.813Z,102220.87
2018-12-15T04:50:04.645Z,102223.44
2018-12-15T04:52:32.965Z,102221.64
2018-12-15T04:55:01.268Z,102225.02
2018-12-15T04:57:29.597Z,102224.91
2018-12-15T04:59:57.894Z,102230.94
2018-12-15T05:02:26.228Z,102232.22
2018-12-15T05:04:54.603Z,102224.91
2018-12-15T05:07:23.019Z,102222.21
2018-12-15T05:09:51.309Z,102223.77
2018-12-15T05:12:19.634Z,102222.36
2018-12-15T05:14:47.944Z,102224.42
2018-12-15T05:17:16.242Z,102227.26
2018-12-15T05:19:44.557Z,102220.20
2018-12-15T05:22:13.221Z,102225.23
2018-12-15T05:24:42.090Z,102224.45
2018-12-15T05:27:11.570Z,102223.55
2018-12-15T05:29:39.906Z,102230.78
2018-12-15T05:32:08.313Z,102227.80
2018-12-15T05:34:36.624Z,102225.65
2018-12-15T05:37:04.918Z,102231.56
2018-12-15T05:39:33.246Z,102229.77
2018-12-15T05:42:01.545Z,102231.56
2018-12-15T05:44:29.857Z,102233.63
2018-12-15T05:46:58.911Z,102228.62
2018-12-15T05:49:27.243Z,102233.26
2018-12-15T05:51:55.549Z,102233.14
2018-12-15T05:54:23.862Z,102235.83
2018-12-15T05:56:52.154Z,102232.99
2018-12-15T05:59:21.182Z,102241.20
2018-12-15T06:01:49.546Z,102236.07
2018-12-15T06:04:17.888Z,102241.98
2018-12-15T06:06:46.252Z,102230.95
2018-12-15T06:09:14.704Z,102232.75
2018-12-15T06:11:43.011Z,102228.39
2018-12-15T06:14:11.346Z,102235.97
2018-12-15T06:16:39.645Z,102236.48
2018-12-15T06:19:07.973Z,102235.47
2018-12-15T06:21:36.264Z,102239.97
2018-12-15T06:24:04.569Z,102240.48
2018-12-15T06:26:32.983Z,102239.05
2018-12-15T06:29:01.304Z,102243.53
2018-12-15T06:31:29.597Z,102243.00
2018-12-15T06:33:57.905Z,102246.86
2018-12-15T06:36:26.286Z,102251.61
2018-12-15T06:38:54.594Z,102252.50
2018-12-15T06:41:22.907Z,102257.77
2018-12-15T06:43:51.254Z,102252.11
2018-12-15T06:46:19.597Z,102254.77
2018-12-15T06:48:47.970Z,102263.67
2018-12-15T06:51:16.294Z,102261.88
2018-12-15T06:53:44.599Z,102262.15
2018-12-15T06:56:13.021Z,102260.86
2018-12-15T06:58:41.378Z,102263.44
2018-12-15T07:01:09.698Z,102258.30
2018-12-15T07:03:38.033Z,102267.28
2018-12-15T07:06:06.526Z,102262.03
2018-12-15T07:08:34.825Z,102264.59
2018-12-15T07:11:03.182Z,102269.34
2018-12-15T07:13:31.489Z,102263.05
2018-12-15T07:15:59.938Z,102264.45
2018-12-15T07:18:28.418Z,102261.11
2018-12-15T07:20:56.799Z,102268.04
2018-12-15T07:23:25.102Z,102268.42
2018-12-15T07:25:53.665Z,102262.78
2018-12-15T07:28:21.993Z,102269.47
2018-12-15T07:30:50.306Z,102271.91
2018-12-15T07:33:18.625Z,102270.75
2018-12-15T07:35:47.277Z,102259.82
2018-12-15T07:38:15.657Z,102264.66
2018-12-15T07:40:44.026Z,102262.21
2018-12-15T07:43:12.355Z,102263.63
2018-12-15T07:45:40.687Z,102266.70
2018-12-15T07:48:09.001Z,102276.20
2018-12-15T07:50:37.313Z,102275.42
2018-12-15T07:53:05.677Z,102268.22
2018-12-15T07:55:34.027Z,102263.47
2018-12-15T07:58:02.329Z,102273.36
2018-12-15T08:00:30.651Z,102277.08
2018-12-15T08:02:58.958Z,102272.95
2018-12-15T08:05:27.289Z,102277.79
2018-12-15T08:07:55.654Z,102276.89
2018-12-15T08:10:24.453Z,102271.36
2018-12-15T08:12:57.748Z,102281.26
2018-12-15T08:15:26.116Z,102282.66
2018-12-15T08:17:54.537Z,102282.91
2018-12-15T08:20:22.893Z,102283.14
2018-12-15T08:22:51.221Z,102282.88
2018-12-15T08:25:19.549Z,102282.31
2018-12-15T08:27:48.499Z,102281.50
2018-12-15T08:30:16.836Z,102278.52
2018-12-15T08:32:45.551Z,102281.80
2018-12-15T08:35:14.097Z,102283.20
2018-12-15T08:37:42.490Z,102282.42
2018-12-15T08:40:10.850Z,102280.09
2018-12-15T08:42:39.246Z,102285.47
2018-12-15T08:45:07.626Z,102287.39
2018-12-15T08:47:35.905Z,102282.87
2018-12-15T08:50:05.497Z,102279.99
2018-12-15T08:52:33.883Z,102270.72
2018-12-15T08:55:02.207Z,102272.62
2018-12-15T08:57:30.525Z,102270.06
2018-12-15T08:59:58.918Z,102267.60
2018-12-15T09:02:27.355Z,102277.11
2018-12-15T09:04:55.660Z,102273.48
2018-12-15T09:07:24.062Z,102271.55
2018-12-15T09:09:52.521Z,102271.23
2018-12-15T09:12:20.814Z,102274.44
2018-12-15T09:14:49.126Z,102279.19
2018-12-15T09:17:17.431Z,102275.45
2018-12-15T09:19:46.469Z,102275.56
2018-12-15T09:22:14.969Z,102279.66
2018-12-15T09:24:43.318Z,102272.45
2018-12-15T09:27:11.690Z,102278.69
2018-12-15T09:29:39.999Z,102267.61
2018-12-15T09:32:08.354Z,102271.43
2018-12-15T09:34:36.700Z,102269.09
2018-12-15T09:37:05.072Z,102268.54
2018-12-15T09:39:33.450Z,102264.83
2018-12-15T09:42:01.807Z,102254.88
2018-12-15T09:44:30.176Z,102263.14
2018-12-15T09:46:58.509Z,102260.52
2018-12-15T09:49:26.856Z,102256.38
2018-12-15T09:51:55.216Z,102256.87
2018-12-15T09:54:23.724Z,102256.99
2018-12-15T09:56:52.053Z,102257.07
2018-12-15T09:59:20.468Z,102254.89
2018-12-15T10:01:48.837Z,102260.63
2018-12-15T10:04:17.193Z,102251.89
2018-12-15T10:06:45.571Z,102252.01
2018-12-15T10:09:13.890Z,102249.94
2018-12-15T10:11:42.227Z,102242.77
2018-12-15T10:14:10.596Z,102243.05
2018-12-15T10:16:38.942Z,102249.64
2018-12-15T10:19:07.316Z,102241.89
2018-12-15T10:21:35.670Z,102234.95
2018-12-15T10:24:04.085Z,102230.98
2018-12-15T10:26:32.436Z,102231.98
2018-12-15T10:29:00.789Z,102232.49
2018-12-15T10:31:35.053Z,102226.84
2018-12-15T10:34:03.384Z,102220.30
2018-12-15T10:36:31.735Z,102215.65
2018-12-15T10:39:00.126Z,102213.97
2018-12-15T10:41:28.463Z,102216.16
2018-12-15T10:43:56.806Z,102210.22
2018-12-15T10:46:25.137Z,102208.20
2018-12-15T10:48:53.494Z,102208.32
2018-12-15T10:51:21.843Z,102200.20
2018-12-15T10:53:50.233Z,102204.06
2018-12-15T10:56:18.610Z,102209.44
2018-12-15T10:58:46.957Z,102203.81
2018-12-15T11:01:20.851Z,102208.12
2018-12-15T11:03:49.199Z,102203.59
2018-12-15T11:06:17.561Z,102203.20
2018-12-15T11:08:45.933Z,102194.59
2018-12-15T11:11:14.279Z,102199.06
2018-12-15T11:13:42.591Z,102195.67
2018-12-15T11:16:10.959Z,102198.24
2018-12-15T11:18:39.298Z,102201.64
2018-12-15T11:21:07.660Z,102195.09
2018-12-15T11:23:35.988Z,102194.59
2018-12-15T11:26:04.369Z,102195.37
2018-12-15T11:28:32.797Z,102188.65
2018-12-15T11:31:01.184Z,102193.41
2018-12-15T11:33:29.586Z,102188.26
2018-12-15T11:35:57.926Z,102182.49
2018-12-15T11:38:26.314Z,102184.56
2018-12-15T11:40:54.705Z,102174.27
2018-12-15T11:43:23.030Z,102163.69
2018-12-15T11:45:51.378Z,102168.16
2018-12-15T11:48:19.732Z,102158.05
2018-12-15T11:50:48.192Z,102162.14
2018-12-15T11:53:16.538Z,102160.84
2018-12-15T11:55:44.886Z,102171.04
2018-12-15T11:58:13.228Z,102168.07
2018-12-15T12:00:41.640Z,102161.46
2018-12-15T12:03:10.033Z,102170.09
2018-12-15T12:05:38.427Z,102165.89
2018-12-15T12:08:06.767Z,102165.44
2018-12-15T12:10:35.120Z,102168.59
2018-12-15T12:13:03.472Z,102157.81
2018-12-15T12:15:31.910Z,102159.39
2018-12-15T12:18:00.246Z,102149.37
2018-12-15T12:20:28.605Z,102151.66
2018-12-15T12:22:56.964Z,102146.30
2018-12-15T12:25:25.299Z,102150.09
2018-12-15T12:27:53.689Z,102147.80
2018-12-15T12:30:22.033Z,102152.55
2018-12-15T12:32:50.422Z,102147.41
2018-12-15T12:35:18.765Z,102147.98
2018-12-15T12:37:47.119Z,102144.44
2018-12-15T12:40:15.460Z,102148.91
2018-12-15T12:42:43.817Z,102140.41
2018-12-15T12:45:12.170Z,102140.11
2018-12-15T12:47:40.543Z,102129.13
2018-12-15T12:50:09.112Z,102138.94
2018-12-15T12:52:37.477Z,102133.78
2018-12-15T12:55:05.890Z,102126.16
2018-12-15T12:57:34.260Z,102135.75
2018-12-15T13:00:02.615Z,102135.25
2018-12-15T13:02:30.988Z,102129.09
2018-12-15T13:04:59.334Z,102130.88
2018-12-15T13:07:27.697Z,102128.91
2018-12-15T13:09:56.032Z,102130.20
2018-12-15T13:12:24.397Z,102129.63
2018-12-15T13:14:52.766Z,102126.77
2018-12-15T13:17:21.114Z,102120.61
2018-12-15T13:19:49.483Z,102121.41
2018-12-15T13:22:17.839Z,102120.22
2018-12-15T13:24:46.343Z,102121.00
2018-12-15T13:27:14.739Z,102124.55
2018-12-15T13:29:43.113Z,102117.64
2018-12-15T13:32:11.476Z,102118.93
2018-12-15T13:34:39.864Z,102118.50
2018-12-15T13:37:08.300Z,102122.97
2018-12-15T13:39:36.679Z,102121.58
2018-12-15T13:42:05.125Z,102116.42
2018-12-15T13:44:33.492Z,102122.47
2018-12-15T13:47:01.872Z,102125.34
2018-12-15T13:49:30.240Z,102121.83
2018-12-15T13:51:58.589Z,102115.88
2018-12-15T13:54:26.996Z,102128.15
2018-12-15T13:56:55.374Z,102124.46
2018-12-15T13:59:23.781Z,102128.50
2018-12-15T14:01:52.154Z,102123.06
2018-12-15T14:04:20.563Z,102121.66
2018-12-15T14:06:49.031Z,102122.16
2018-12-15T14:09:17.426Z,102118.91
2018-12-15T14:11:45.820Z,102128.22
2018-12-15T14:14:14.201Z,102130.01
2018-12-15T14:16:42.613Z,102127.83
2018-12-15T14:19:11.000Z,102126.13
2018-12-15T14:21:39.423Z,102124.91
2018-12-15T14:24:07.790Z,102124.13
2018-12-15T14:26:36.374Z,102123.12
2018-12-15T14:29:04.903Z,102127.48
2018-12-15T14:31:33.285Z,102124.58
2018-12-15T14:34:01.674Z,102130.83
2018-12-15T14:36:30.051Z,102129.16
2018-12-15T14:38:58.590Z,102126.97
2018-12-15T14:41:27.005Z,102127.75
2018-12-15T14:43:55.369Z,102124.56
2018-12-15T14:46:23.877Z,102122.67
2018-12-15T14:48:52.255Z,102123.73
2018-12-15T14:51:20.706Z,102124.63
2018-12-15T14:53:49.140Z,102119.88
2018-12-15T14:56:17.512Z,102112.77
2018-12-15T14:58:45.917Z,102115.62
2018-12-15T15:01:14.273Z,102114.81
2018-12-15T15:03:42.618Z,102111.91
2018-12-15T15:06:11.049Z,102115.16
2018-12-15T15:08:39.509Z,102109.39
2018-12-15T15:11:08.028Z,102106.43
2018-12-15T15:13:36.407Z,102108.11
2018-12-15T15:16:04.810Z,102114.55
2018-12-15T15:18:33.251Z,102110.06
2018-12-15T15:21:01.647Z,102103.45
2018-12-15T15:23:30.040Z,102093.83
2018-12-15T15:25:59.626Z,102099.98
2018-12-15T15:28:28.151Z,102101.66
2018-12-15T15:30:56.546Z,102095.11
2018-12-15T15:33:24.893Z,102095.00
2018-12-15T15:35:53.299Z,102085.88
2018-12-15T15:38:21.659Z,102090.64
2018-12-15T15:40:50.009Z,102084.20
2018-12-15T15:43:18.412Z,102080.23
2018-12-15T15:45:46.771Z,102082.02
2018-12-15T15:48:15.217Z,102083.70
2018-12-15T15:50:43.589Z,102073.08
2018-12-15T15:53:11.967Z,102079.62
2018-12-15T15:55:40.330Z,102074.97
2018-12-15T15:58:08.680Z,102070.22
2018-12-15T16:00:37.198Z,102072.06
2018-12-15T16:03:05.543Z,102073.67
2018-12-15T16:05:33.943Z,102076.13
2018-12-15T16:08:02.329Z,102071.77
2018-12-15T16:10:30.682Z,102070.98
2018-12-15T16:12:59.162Z,102071.27
2018-12-15T16:15:27.561Z,102066.01
2018-12-15T16:17:55.939Z,102066.12
2018-12-15T16:20:24.307Z,102062.77
2018-12-15T16:22:52.661Z,102062.15
2018-12-15T16:25:21.018Z,102055.72
2018-12-15T16:27:50.075Z,102050.07
2018-12-15T16:30:18.608Z,102046.49
2018-12-15T16:32:46.951Z,102049.95
2018-12-15T16:35:15.327Z,102045.42
2018-12-15T16:37:43.698Z,102041.40
2018-12-15T16:40:12.273Z,102045.05
2018-12-15T16:42:40.672Z,102037.73
2018-12-15T16:45:09.487Z,102040.22
2018-12-15T16:47:37.918Z,102038.33
2018-12-15T16:50:09.941Z,102045.03
2018-12-15T16:52:38.308Z,102045.82
2018-12-15T16:55:07.142Z,102038.66
2018-12-15T16:57:35.490Z,102036.77
2018-12-15T17:00:07.516Z,102041.41
2018-12-15T17:02:35.895Z,102029.44
2018-12-15T17:05:05.529Z,102030.84
2018-12-15T17:07:33.884Z,102034.80
2018-12-15T17:10:02.263Z,102030.55
2018-12-15T17:12:30.649Z,102031.45
2018-12-15T17:14:59.043Z,102026.30
2018-12-15T17:17:27.433Z,102023.40
2018-12-15T17:19:55.795Z,102017.67
2018-12-15T17:22:24.268Z,102027.06
2018-12-15T17:24:52.612Z,102027.06
2018-12-15T17:27:29.040Z,102023.33
2018-12-15T17:29:57.460Z,102021.92
2018-12-15T17:32:25.908Z,102010.74
2018-12-15T17:34:54.273Z,102018.85
2018-12-15T17:37:22.631Z,102015.89
2018-12-15T17:39:51.009Z,102020.14
2018-12-15T17:42:19.401Z,102001.80
2018-12-15T17:44:47.799Z,102004.54
2018-12-15T17:47:16.148Z,102001.36
2018-12-15T17:49:44.488Z,102007.20
2018-12-15T17:52:12.867Z,102002.73
2018-12-15T17:54:41.211Z,101994.69
2018-12-15T17:57:09.590Z,101995.74
2018-12-15T17:59:37.964Z,101995.52
2018-12-15T18:02:06.312Z,101993.77
2018-12-15T18:04:34.706Z,101992.87
2018-12-15T18:07:03.093Z,101998.48
2018-12-15T18:09:31.495Z,101989.98
2018-12-15T18:11:59.840Z,101985.96
2018-12-15T18:14:28.228Z,101991.22
2018-12-15T18:16:56.565Z,101984.79
2018-12-15T18:19:25.200Z,101984.95
2018-12-15T18:21:53.569Z,101982.98
2018-12-15T18:24:21.992Z,101981.86
2018-12-15T18:26:50.320Z,101970.06
2018-12-15T18:29:18.668Z,101972.64
2018-12-15T18:31:47.055Z,101958.89
2018-12-15T18:34:15.558Z,101962.47
2018-12-15T18:36:43.907Z,101960.01
2018-12-15T18:39:12.366Z,101958.61
2018-12-15T18:41:40.739Z,101952.97
2018-12-15T18:44:09.098Z,101960.68
2018-12-15T18:46:37.629Z,101956.44
2018-12-15T18:49:05.974Z,101954.25
2018-12-15T18:51:34.299Z,101950.17
2018-12-15T18:54:02.663Z,101940.95
2018-12-15T18:56:31.190Z,101946.48
2018-12-15T18:59:00.124Z,101935.73
2018-12-15T19:01:28.545Z,101930.09
2018-12-15T19:03:56.888Z,101924.56
2018-12-15T19:06:25.233Z,101927.32
2018-12-15T19:08:53.591Z,101918.14
2018-12-15T19:11:22.153Z,101925.45
2018-12-15T19:13:50.599Z,101919.70
2018-12-15T19:16:19.009Z,101917.91
2018-12-15T19:18:47.364Z,101911.60
2018-12-15T19:21:15.729Z,101908.92
2018-12-15T19:23:44.272Z,101919.09
2018-12-15T19:26:12.643Z,101912.55
2018-12-15T19:28:40.997Z,101908.30
2018-12-15T19:31:09.360Z,101911.87
2018-12-15T19:33:37.716Z,101901.71
2018-12-15T19:36:06.079Z,101905.68
2018-12-15T19:38:34.406Z,101895.28
2018-12-15T19:41:02.721Z,101896.97
2018-12-15T19:43:31.095Z,101894.89
2018-12-15T19:45:59.474Z,101887.08
2018-12-15T19:48:28.111Z,101883.22
2018-12-15T19:50:56.464Z,101890.93
2018-12-15T19:53:24.834Z,101884.61
2018-12-15T19:55:53.187Z,101887.58
2018-12-15T19:58:21.678Z,101889.64
2018-12-15T20:00:50.155Z,101887.97
2018-12-15T20:03:18.490Z,101871.48
2018-12-15T20:05:46.881Z,101878.98
2018-12-15T20:08:15.238Z,101878.09
2018-12-15T20:10:43.586Z,101866.81
2018-12-15T20:13:12.080Z,101864.95
2018-12-15T20:15:40.522Z,101861.77
2018-12-15T20:18:09.007Z,101862.16
2018-12-15T20:20:37.366Z,101860.09
2018-12-15T20:23:05.688Z,101852.66
2018-12-15T20:25:34.144Z,101845.73
2018-12-15T20:28:02.500Z,101843.56
2018-12-15T20:30:30.863Z,101837.02
2018-12-15T20:32:59.255Z,101831.49
2018-12-15T20:35:27.622Z,101828.03
2018-12-15T20:37:55.987Z,101827.64
2018-12-15T20:40:24.350Z,101824.06
2018-12-15T20:42:52.722Z,101818.81
2018-12-15T20:45:21.119Z,101822.17
2018-12-15T20:47:49.455Z,101815.36
2018-12-15T20:50:17.796Z,101811.50
2018-12-15T20:52:47.731Z,101809.21
2018-12-15T20:55:16.361Z,101809.21
2018-12-15T20:57:44.726Z,101807.46
2018-12-15T21:00:13.250Z,101803.68
2018-12-15T21:02:41.614Z,101809.72
2018-12-15T21:05:10.012Z,101804.80
2018-12-15T21:07:38.556Z,101803.40
2018-12-15T21:10:07.680Z,101800.33
2018-12-15T21:12:36.022Z,101797.47
2018-12-15T21:17:54.732Z,101790.94
2018-12-15T21:20:23.212Z,101791.65
2018-12-15T21:22:51.563Z,101783.94
2018-12-15T21:25:20.014Z,101778.38
2018-12-15T21:27:48.506Z,101781.95
2018-12-15T21:30:16.870Z,101777.03
2018-12-15T21:32:45.244Z,101776.92
2018-12-15T21:35:13.740Z,101772.56
2018-12-15T21:37:42.102Z,101762.78
2018-12-15T21:40:10.541Z,101764.57
2018-12-15T21:42:38.938Z,101761.22
2018-12-15T21:45:07.972Z,101761.22
2018-12-15T21:47:36.335Z,101763.78
2018-12-15T21:50:05.840Z,101757.86
2018-12-15T21:52:34.198Z,101742.44
2018-12-15T21:55:02.554Z,101735.13
2018-12-15T21:57:31.097Z,101733.84
2018-12-15T21:59:59.454Z,101737.91
2018-12-15T22:02:28.472Z,101734.05
2018-12-15T22:04:56.976Z,101727.23
2018-12-15T22:07:25.328Z,101730.09
2018-12-15T22:09:53.768Z,101721.88
2018-12-15T22:12:22.110Z,101721.38
2018-12-15T22:14:50.452Z,101722.67
2018-12-15T22:17:18.837Z,101714.46
2018-12-15T22:19:47.183Z,101709.71
2018-12-15T22:22:15.740Z,101705.47
2018-12-15T22:24:44.376Z,101708.82
2018-12-15T22:27:12.724Z,101700.22
2018-12-15T22:29:41.100Z,101694.97
2018-12-15T22:32:09.436Z,101685.48
2018-12-15T22:34:37.978Z,101677.77
2018-12-15T22:37:06.350Z,101675.20
2018-12-15T22:39:34.698Z,101677.37
2018-12-15T22:42:03.068Z,101669.67
2018-12-15T22:44:31.407Z,101669.28
2018-12-15T22:46:59.798Z,101663.46
2018-12-15T22:49:28.173Z,101661.39
2018-12-15T22:51:56.551Z,101667.92
2018-12-15T22:54:24.916Z,101661.39
2018-12-15T22:56:53.258Z,101651.61
2018-12-15T22:59:21.895Z,101649.64
2018-12-15T23:01:50.239Z,101641.64
2018-12-15T23:04:18.583Z,101640.75
2018-12-15T23:06:47.107Z,101634.72
2018-12-15T23:09:15.517Z,101631.86
2018-12-15T23:11:44.140Z,101623.16
2018-12-15T23:14:12.517Z,101628.30
2018-12-15T23:16:40.901Z,101624.16
2018-12-15T23:19:09.276Z,101619.61
2018-12-15T23:21:37.691Z,101621.86
2018-12-15T23:24:06.293Z,101611.19
2018-12-15T23:26:34.668Z,101603.19
2018-12-15T23:29:03.040Z,101602.40
2018-12-15T23:31:31.418Z,101605.55
2018-12-15T23:33:59.741Z,101599.45
2018-12-15T23:36:28.109Z,101590.06
2018-12-15T23:38:56.450Z,101593.09
2018-12-15T23:41:24.812Z,101584.49
2018-12-15T23:43:53.309Z,101583.53
2018-12-15T23:46:22.221Z,101580.86
2018-12-15T23:48:50.817Z,101581.25
2018-12-15T23:51:19.194Z,101566.72
2018-12-15T23:53:47.534Z,101568.91
2018-12-15T23:56:15.899Z,101564.05
2018-12-15T23:58:44.242Z,101560.20
